Time;durP1;ratioP1;P1;durP2;ratioP2;P2;SDS_P1;SDS_P2;PMS_P1;PMS_P2;Temp;Humidity;BMP_temperature;BMP_pressure;BME280_temperature;BME280_humidity;BME280_pressure;Samples;Min_cycle;Max_cycle;Signal;HPM_P1;HPM_P2
2024/03/13 00:00:19;;;;;;;14.60;8.80;;;;;;;;;;106163;1253;61975;-78
2024/03/13 00:03:05;;;;;;;15.60;10.20;;;;;;;;;;106355;1253;62040;-77
2024/03/13 00:05:32;;;;;;;12.30;8.00;;;;;;;;;;106350;1254;62031;-78
2024/03/13 00:07:58;;;;;;;12.30;8.00;;;;;;;;;;106398;1253;62080;-81
2024/03/13 00:10:26;;;;;;;11.60;7.20;;;;;;;;;;106942;1257;62126;-80
2024/03/13 00:12:52;;;;;;;11.90;8.90;;;;;;;;;;106983;1257;62150;-83
2024/03/13 00:15:19;;;;;;;14.80;9.60;;;;;;;;;;106938;1253;62038;-79
2024/03/13 00:17:45;;;;;;;13.20;8.40;;;;;;;;;;107006;1253;61879;-79
2024/03/13 00:20:12;;;;;;;11.90;8.30;;;;;;;;;;106480;1252;62018;-78
2024/03/13 00:22:40;;;;;;;15.30;9.50;;;;;;;;;;106488;1253;62209;-78
2024/03/13 00:25:10;;;;;;;16.90;9.60;;;;;;;;;;106456;1256;62800;-83
2024/03/13 00:27:37;;;;;;;12.90;8.90;;;;;;;;;;107060;1253;62672;-79
2024/03/13 00:30:05;;;;;;;15.60;8.90;;;;;;;;;;106482;1253;61895;-83
2024/03/13 00:32:32;;;;;;;11.90;8.00;;;;;;;;;;107070;1254;62603;-83
2024/03/13 00:35:01;;;;;;;14.50;9.10;;;;;;;;;;107047;1256;61779;-83
2024/03/13 00:37:27;;;;;;;14.10;8.60;;;;;;;;;;107124;1251;60483;-79
2024/03/13 00:39:53;;;;;;;12.70;7.80;;;;;;;;;;106516;1254;62056;-79
2024/03/13 00:42:21;;;;;;;10.60;7.00;;;;;;;;;;106545;1254;62002;-82
2024/03/13 00:44:47;;;;;;;13.80;8.30;;;;;;;;;;107144;1255;62719;-79
2024/03/13 00:47:16;;;;;;;15.40;8.00;;;;;;;;;;106712;1255;62127;-78
2024/03/13 00:49:43;;;;;;;17.00;9.80;;;;;;;;;;107142;1255;61997;-79
2024/03/13 00:52:09;;;;;;;12.50;8.60;;;;;;;;;;107336;1255;62002;-82
2024/03/13 00:54:36;;;;;;;13.40;9.10;;;;;;;;;;107041;1256;62467;-83
2024/03/13 00:57:02;;;;;;;12.90;8.10;;;;;;;;;;107032;1254;61981;-78
2024/03/13 00:59:29;;;;;;;11.30;7.90;;;;;;;;;;106509;1253;62152;-82
2024/03/13 01:01:56;;;;;;;11.20;7.10;;;;;;;;;;106997;1253;62207;-82
2024/03/13 01:04:25;;;;;;;10.70;7.20;;;;;;;;;;107004;1256;62073;-78
2024/03/13 01:06:52;;;;;;;11.20;7.00;;;;;;;;;;106560;1254;62053;-82
2024/03/13 01:09:24;;;;;;;10.70;8.20;;;;;;;;;;107114;1253;62354;-82
2024/03/13 01:11:54;;;;;;;10.40;6.60;;;;;;;;;;106981;1253;62006;-82
2024/03/13 01:14:21;;;;;;;13.70;8.70;;;;;;;;;;107153;1252;61991;-78
2024/03/13 01:16:51;;;;;;;11.40;7.70;;;;;;;;;;107061;1253;61980;-81
2024/03/13 01:19:19;;;;;;;18.00;8.80;;;;;;;;;;106513;1253;62027;-82
2024/03/13 01:22:03;;;;;;;20.00;10.20;;;;;;;;;;106970;1254;61929;-82
2024/03/13 01:24:29;;;;;;;17.10;8.60;;;;;;;;;;107137;1253;62274;-78
2024/03/13 01:26:56;;;;;;;14.10;8.10;;;;;;;;;;107110;1253;60638;-78
2024/03/13 01:29:22;;;;;;;15.60;8.00;;;;;;;;;;108488;1253;60009;-83
2024/03/13 01:31:49;;;;;;;11.00;7.50;;;;;;;;;;107394;1253;62077;-83
2024/03/13 01:34:16;;;;;;;12.30;7.70;;;;;;;;;;107080;1256;62096;-83
2024/03/13 01:39:28;;;;;;;10.20;6.10;;;;;;;;;;106539;1254;62025;-83
2024/03/13 01:56:26;;;;;;;7.10;4.90;;;;;;;;;;106588;1256;61959;-84
2024/03/13 01:59:03;;;;;;;8.60;5.20;;;;;;;;;;107045;1257;62009;-83
2024/03/13 02:04:15;;;;;;;8.50;5.30;;;;;;;;;;106431;1254;62124;-83
2024/03/13 02:06:41;;;;;;;11.50;6.30;;;;;;;;;;107083;1254;61652;-82
2024/03/13 02:09:08;;;;;;;10.80;6.70;;;;;;;;;;107092;1253;62122;-80
2024/03/13 02:11:36;;;;;;;8.90;6.30;;;;;;;;;;106477;1254;62134;-79
2024/03/13 02:14:04;;;;;;;11.40;7.10;;;;;;;;;;107043;1253;63635;-79
2024/03/13 02:16:31;;;;;;;10.70;6.50;;;;;;;;;;106498;1253;62038;-82
2024/03/13 02:18:59;;;;;;;15.30;7.50;;;;;;;;;;107062;1253;62159;-82
2024/03/13 02:21:25;;;;;;;12.20;7.50;;;;;;;;;;107055;1256;62029;-79
2024/03/13 02:23:52;;;;;;;9.50;5.80;;;;;;;;;;106936;1259;60194;-82
2024/03/13 02:26:19;;;;;;;11.90;6.80;;;;;;;;;;107050;1253;62046;-82
2024/03/13 02:28:45;;;;;;;11.90;7.00;;;;;;;;;;107025;1256;62073;-79
2024/03/13 02:31:12;;;;;;;8.90;5.80;;;;;;;;;;107064;1253;62035;-83
2024/03/13 02:33:38;;;;;;;8.70;5.60;;;;;;;;;;107043;1253;62172;-79
2024/03/13 02:36:05;;;;;;;8.10;5.30;;;;;;;;;;107109;1251;60531;-81
2024/03/13 02:38:32;;;;;;;9.30;5.60;;;;;;;;;;107151;1251;62768;-79
2024/03/13 02:40:58;;;;;;;8.30;4.80;;;;;;;;;;106835;1256;62982;-82
2024/03/13 02:43:25;;;;;;;7.90;4.90;;;;;;;;;;107102;1256;62116;-79
2024/03/13 02:45:51;;;;;;;8.10;5.50;;;;;;;;;;107086;1254;62076;-82
2024/03/13 02:48:18;;;;;;;7.60;5.90;;;;;;;;;;107127;1254;61903;-79
2024/03/13 02:50:44;;;;;;;10.50;5.60;;;;;;;;;;107140;1255;62056;-79
2024/03/13 02:53:10;;;;;;;9.50;6.20;;;;;;;;;;107121;1252;62120;-80
2024/03/13 02:55:37;;;;;;;8.60;5.60;;;;;;;;;;106351;1253;62181;-79
2024/03/13 02:58:04;;;;;;;8.20;5.80;;;;;;;;;;106922;1259;60698;-82
2024/03/13 03:00:30;;;;;;;8.10;6.00;;;;;;;;;;107008;1257;62515;-82
2024/03/13 03:02:57;;;;;;;8.20;6.10;;;;;;;;;;107095;1253;62061;-82
2024/03/13 03:05:24;;;;;;;11.30;6.40;;;;;;;;;;107064;1256;62056;-79
2024/03/13 03:07:53;;;;;;;7.50;5.30;;;;;;;;;;107066;1256;62162;-82
2024/03/13 03:10:20;;;;;;;8.60;5.70;;;;;;;;;;106959;1252;62162;-78
2024/03/13 03:12:47;;;;;;;9.60;6.20;;;;;;;;;;106367;1253;61963;-83
2024/03/13 03:15:13;;;;;;;7.00;5.20;;;;;;;;;;107051;1253;63077;-82
2024/03/13 03:17:40;;;;;;;7.30;5.10;;;;;;;;;;107109;1253;62091;-79
2024/03/13 03:20:07;;;;;;;6.80;5.40;;;;;;;;;;107115;1253;62074;-82
2024/03/13 03:22:33;;;;;;;8.60;6.00;;;;;;;;;;107010;1253;62034;-83
2024/03/13 03:25:00;;;;;;;9.40;5.10;;;;;;;;;;107156;1252;62753;-83
2024/03/13 03:27:26;;;;;;;14.60;4.70;;;;;;;;;;107038;1256;62034;-79
2024/03/13 03:29:53;;;;;;;9.40;5.80;;;;;;;;;;106496;1256;62259;-83
2024/03/13 03:32:20;;;;;;;7.80;5.00;;;;;;;;;;106987;1253;62106;-83
2024/03/13 03:34:46;;;;;;;8.50;5.50;;;;;;;;;;107090;1254;62043;-79
2024/03/13 03:37:16;;;;;;;9.40;5.80;;;;;;;;;;107132;1255;61934;-78
2024/03/13 03:39:43;;;;;;;8.60;5.60;;;;;;;;;;106561;1254;63335;-83
2024/03/13 03:42:09;;;;;;;7.80;5.00;;;;;;;;;;107137;1254;62145;-79
2024/03/13 03:44:36;;;;;;;11.70;5.60;;;;;;;;;;107048;1254;62066;-82
2024/03/13 03:47:03;;;;;;;9.00;4.70;;;;;;;;;;107075;1257;62021;-79
2024/03/13 03:49:30;;;;;;;7.20;4.90;;;;;;;;;;106338;1256;62218;-82
2024/03/13 03:51:56;;;;;;;8.00;4.90;;;;;;;;;;108171;1254;62705;-82
2024/03/13 03:54:22;;;;;;;7.30;4.50;;;;;;;;;;109475;1253;59644;-83
2024/03/13 03:56:49;;;;;;;9.10;6.40;;;;;;;;;;109458;1254;59750;-79
2024/03/13 03:59:15;;;;;;;7.20;5.00;;;;;;;;;;109448;1253;59817;-82
2024/03/13 04:01:42;;;;;;;7.20;4.10;;;;;;;;;;109499;1253;59846;-82
2024/03/13 04:04:08;;;;;;;7.60;5.30;;;;;;;;;;109478;1252;59891;-79
2024/03/13 04:06:34;;;;;;;13.60;5.70;;;;;;;;;;109515;1253;59757;-79
2024/03/13 04:09:14;;;;;;;10.10;6.50;;;;;;;;;;109438;1253;60015;-82
2024/03/13 04:11:43;;;;;;;10.80;6.20;;;;;;;;;;107227;1254;62126;-82
2024/03/13 04:14:10;;;;;;;11.80;7.40;;;;;;;;;;107110;1254;61961;-82
2024/03/13 04:16:43;;;;;;;15.30;8.60;;;;;;;;;;107141;1254;63140;-83
2024/03/13 04:19:10;;;;;;;10.20;6.60;;;;;;;;;;107028;1254;62011;-82
2024/03/13 04:21:38;;;;;;;10.10;7.20;;;;;;;;;;107019;1256;61920;-78
2024/03/13 04:24:07;;;;;;;10.30;6.50;;;;;;;;;;106485;1256;61915;-79
2024/03/13 04:26:37;;;;;;;9.50;7.30;;;;;;;;;;108739;1254;60143;-83
2024/03/13 04:29:04;;;;;;;8.80;6.20;;;;;;;;;;107315;1254;62746;-79
2024/03/13 04:31:32;;;;;;;10.40;6.40;;;;;;;;;;106315;1259;62760;-79
2024/03/13 04:33:59;;;;;;;12.80;8.00;;;;;;;;;;106464;1256;62046;-79
2024/03/13 04:36:26;;;;;;;14.00;8.10;;;;;;;;;;109389;1253;60130;-83
2024/03/13 04:38:52;;;;;;;16.80;9.70;;;;;;;;;;107167;1252;61951;-79
2024/03/13 04:41:19;;;;;;;13.20;7.90;;;;;;;;;;106562;1255;61998;-79
2024/03/13 04:43:49;;;;;;;10.90;7.00;;;;;;;;;;106548;1252;62516;-82
2024/03/13 04:46:16;;;;;;;12.00;8.30;;;;;;;;;;106866;1252;62027;-81
2024/03/13 04:48:44;;;;;;;14.10;8.00;;;;;;;;;;107102;1251;61900;-83
2024/03/13 04:51:17;;;;;;;13.00;8.40;;;;;;;;;;107086;1256;61909;-79
2024/03/13 04:53:43;;;;;;;14.30;8.30;;;;;;;;;;107147;1256;63539;-82
2024/03/13 04:56:12;;;;;;;24.90;16.90;;;;;;;;;;107017;1253;62149;-79
2024/03/13 04:58:39;;;;;;;19.80;14.90;;;;;;;;;;106883;1258;62372;-79
2024/03/13 05:01:07;;;;;;;11.20;8.70;;;;;;;;;;109507;1253;59775;-79
2024/03/13 05:03:34;;;;;;;12.60;8.60;;;;;;;;;;108628;1253;61951;-83
2024/03/13 05:06:01;;;;;;;12.80;8.10;;;;;;;;;;107221;1253;61899;-81
2024/03/13 05:08:28;;;;;;;14.00;9.00;;;;;;;;;;109355;1255;59822;-80
2024/03/13 05:10:54;;;;;;;16.60;9.60;;;;;;;;;;109468;1254;59987;-79
2024/03/13 05:13:21;;;;;;;14.60;9.00;;;;;;;;;;109439;1256;59768;-83
2024/03/13 05:15:48;;;;;;;15.70;9.40;;;;;;;;;;109482;1254;59960;-83
2024/03/13 05:18:14;;;;;;;16.40;10.00;;;;;;;;;;108965;1254;59676;-79
2024/03/13 05:20:41;;;;;;;17.40;10.40;;;;;;;;;;107192;1253;62112;-80
2024/03/13 05:23:08;;;;;;;17.20;11.00;;;;;;;;;;109463;1252;59676;-82
2024/03/13 05:25:34;;;;;;;16.80;10.00;;;;;;;;;;109512;1254;59785;-81
2024/03/13 05:28:01;;;;;;;18.00;10.10;;;;;;;;;;109380;1253;60074;-81
2024/03/13 05:30:27;;;;;;;18.70;12.20;;;;;;;;;;108299;1253;62059;-79
2024/03/13 05:32:54;;;;;;;22.10;12.90;;;;;;;;;;106998;1253;62150;-82
2024/03/13 05:35:20;;;;;;;20.60;12.50;;;;;;;;;;106776;1253;62048;-79
2024/03/13 05:37:46;;;;;;;22.80;13.30;;;;;;;;;;106973;1257;61980;-79
2024/03/13 05:40:16;;;;;;;23.90;13.30;;;;;;;;;;106972;1257;62054;-79
2024/03/13 05:42:43;;;;;;;21.20;12.60;;;;;;;;;;106349;1260;62032;-82
2024/03/13 05:45:09;;;;;;;23.20;13.90;;;;;;;;;;106731;1260;236805;-79
2024/03/13 05:47:36;;;;;;;24.20;15.10;;;;;;;;;;106329;1258;62030;-82
2024/03/13 05:50:05;;;;;;;22.90;13.50;;;;;;;;;;106940;1254;62127;-82
2024/03/13 05:52:31;;;;;;;31.50;15.50;;;;;;;;;;106987;1257;61961;-79
2024/03/13 05:54:58;;;;;;;27.30;16.40;;;;;;;;;;106270;1254;61941;-83
2024/03/13 05:57:24;;;;;;;28.30;15.50;;;;;;;;;;107043;1257;62062;-82
2024/03/13 05:59:51;;;;;;;26.90;15.50;;;;;;;;;;106997;1256;62730;-83
2024/03/13 06:02:17;;;;;;;27.50;15.40;;;;;;;;;;106995;1266;63209;-83
2024/03/13 06:04:45;;;;;;;29.70;16.50;;;;;;;;;;108394;1252;60252;-83
2024/03/13 06:07:12;;;;;;;26.30;14.80;;;;;;;;;;107864;1257;63666;-78
2024/03/13 06:09:38;;;;;;;25.60;14.40;;;;;;;;;;108521;1253;62041;-79
2024/03/13 06:12:06;;;;;;;23.20;14.80;;;;;;;;;;107881;1255;62127;-82
2024/03/13 06:14:37;;;;;;;26.60;15.70;;;;;;;;;;107119;1256;62149;-82
2024/03/13 06:17:04;;;;;;;24.70;14.50;;;;;;;;;;107023;1254;62044;-79
2024/03/13 06:19:30;;;;;;;25.20;14.30;;;;;;;;;;107078;1255;62070;-79
2024/03/13 06:21:57;;;;;;;26.10;15.80;;;;;;;;;;107099;1253;62134;-83
2024/03/13 06:24:30;;;;;;;26.70;14.40;;;;;;;;;;107083;1256;61037;-82
2024/03/13 06:27:00;;;;;;;25.30;15.30;;;;;;;;;;107117;1253;62012;-78
2024/03/13 06:32:12;;;;;;;30.10;15.20;;;;;;;;;;107061;1257;62069;-83
2024/03/13 06:34:38;;;;;;;26.10;15.80;;;;;;;;;;107039;1254;62007;-80
2024/03/13 06:37:05;;;;;;;27.00;14.30;;;;;;;;;;107047;1254;61986;-82
2024/03/13 06:39:32;;;;;;;37.50;21.90;;;;;;;;;;107103;1251;62050;-82
2024/03/13 06:41:58;;;;;;;34.20;20.00;;;;;;;;;;107111;1256;61918;-79
2024/03/13 06:44:24;;;;;;;25.80;14.50;;;;;;;;;;106988;1257;62089;-83
2024/03/13 06:46:51;;;;;;;29.60;16.80;;;;;;;;;;108422;1251;61954;-80
2024/03/13 06:49:17;;;;;;;27.00;17.80;;;;;;;;;;109325;1254;59971;-83
2024/03/13 06:51:44;;;;;;;33.50;17.50;;;;;;;;;;109483;1254;59741;-79
2024/03/13 06:54:10;;;;;;;28.10;16.20;;;;;;;;;;109381;1254;59920;-83
2024/03/13 06:56:37;;;;;;;29.70;15.60;;;;;;;;;;109449;1254;59781;-79
2024/03/13 06:59:03;;;;;;;31.30;17.90;;;;;;;;;;109447;1256;59763;-83
2024/03/13 07:01:29;;;;;;;33.50;19.80;;;;;;;;;;109286;1252;60348;-84
2024/03/13 07:03:56;;;;;;;33.00;18.30;;;;;;;;;;109420;1254;60018;-83
2024/03/13 07:06:23;;;;;;;33.50;17.20;;;;;;;;;;109443;1253;59984;-82
2024/03/13 07:08:49;;;;;;;34.20;21.00;;;;;;;;;;109374;1256;59785;-83
2024/03/13 07:11:16;;;;;;;31.90;18.30;;;;;;;;;;109424;1252;60200;-83
2024/03/13 07:13:42;;;;;;;29.30;17.90;;;;;;;;;;109411;1254;60819;-83
2024/03/13 07:16:09;;;;;;;28.80;15.70;;;;;;;;;;109348;1254;60819;-83
2024/03/13 07:18:35;;;;;;;24.20;14.80;;;;;;;;;;107937;1252;61962;-80
2024/03/13 07:21:03;;;;;;;23.30;13.40;;;;;;;;;;109258;1254;60385;-84
2024/03/13 07:23:29;;;;;;;22.20;12.90;;;;;;;;;;109403;1251;60157;-83
2024/03/13 07:25:56;;;;;;;21.70;12.60;;;;;;;;;;107630;1252;59931;-83
2024/03/13 07:28:22;;;;;;;19.20;11.80;;;;;;;;;;107186;1257;61984;-82
2024/03/13 07:30:49;;;;;;;28.00;14.80;;;;;;;;;;107004;1254;62070;-83
2024/03/13 07:33:15;;;;;;;21.30;11.70;;;;;;;;;;107170;1266;62153;-83
2024/03/13 07:35:41;;;;;;;20.80;11.50;;;;;;;;;;107060;1254;62110;-83
2024/03/13 07:38:10;;;;;;;22.80;12.60;;;;;;;;;;107053;1255;62142;-79
2024/03/13 07:40:40;;;;;;;18.50;10.80;;;;;;;;;;107034;1251;61970;-79
2024/03/13 07:43:09;;;;;;;19.30;13.00;;;;;;;;;;106393;1267;60619;-78
2024/03/13 07:45:37;;;;;;;18.70;11.10;;;;;;;;;;107010;1257;62715;-83
2024/03/13 07:48:07;;;;;;;22.60;14.40;;;;;;;;;;106897;1258;62802;-79
2024/03/13 07:50:35;;;;;;;20.50;12.50;;;;;;;;;;106555;1254;62129;-83
2024/03/13 07:53:02;;;;;;;22.10;11.90;;;;;;;;;;109371;1254;60843;-83
2024/03/13 07:55:29;;;;;;;31.50;17.40;;;;;;;;;;108789;1254;60088;-84
2024/03/13 07:57:55;;;;;;;32.20;17.00;;;;;;;;;;106990;1254;63658;-84
2024/03/13 08:00:22;;;;;;;21.50;12.10;;;;;;;;;;106992;1257;62133;-84
2024/03/13 08:02:48;;;;;;;26.40;13.70;;;;;;;;;;107225;1257;62010;-78
2024/03/13 08:05:16;;;;;;;22.60;13.40;;;;;;;;;;106456;1251;62039;-79
2024/03/13 08:07:44;;;;;;;28.20;16.10;;;;;;;;;;107256;1256;62117;-79
2024/03/13 08:10:11;;;;;;;33.10;17.50;;;;;;;;;;106388;1254;62085;-79
2024/03/13 08:12:38;;;;;;;27.40;15.40;;;;;;;;;;107379;1254;62609;-80
2024/03/13 08:15:04;;;;;;;40.30;19.10;;;;;;;;;;107313;1254;62071;-83
2024/03/13 08:17:31;;;;;;;69.80;27.20;;;;;;;;;;107037;1257;61939;-83
2024/03/13 08:19:57;;;;;;;31.40;16.00;;;;;;;;;;107149;1254;62047;-79
2024/03/13 08:22:23;;;;;;;23.40;13.50;;;;;;;;;;107008;1260;61945;-79
2024/03/13 08:24:50;;;;;;;17.60;9.90;;;;;;;;;;107216;1252;62140;-79
2024/03/13 08:27:17;;;;;;;18.20;10.90;;;;;;;;;;106359;1260;63126;-79
2024/03/13 08:29:43;;;;;;;21.10;12.80;;;;;;;;;;106772;1260;62159;-79
2024/03/13 08:32:09;;;;;;;17.70;11.00;;;;;;;;;;107247;1252;60646;-82
2024/03/13 08:34:36;;;;;;;19.60;13.00;;;;;;;;;;107101;1254;60373;-78
2024/03/13 08:37:07;;;;;;;15.70;10.60;;;;;;;;;;106522;1254;63092;-78
2024/03/13 08:39:34;;;;;;;16.20;9.10;;;;;;;;;;106178;1253;62062;-78
2024/03/13 08:42:01;;;;;;;17.50;11.70;;;;;;;;;;107147;1254;62111;-78
2024/03/13 08:44:29;;;;;;;23.60;14.30;;;;;;;;;;106318;1254;62085;-81
2024/03/13 08:46:57;;;;;;;16.90;9.80;;;;;;;;;;107124;1256;62035;-82
2024/03/13 08:49:24;;;;;;;17.20;10.70;;;;;;;;;;107018;1253;62031;-79
2024/03/13 08:51:51;;;;;;;19.90;12.40;;;;;;;;;;106456;1256;61228;-83
2024/03/13 08:54:18;;;;;;;21.10;12.60;;;;;;;;;;107148;1253;62092;-79
2024/03/13 08:56:46;;;;;;;18.80;11.00;;;;;;;;;;106645;1253;62106;-78
2024/03/13 08:59:13;;;;;;;17.80;10.80;;;;;;;;;;106382;1254;64557;-79
2024/03/13 09:01:42;;;;;;;34.50;24.80;;;;;;;;;;106884;1253;61976;-79
2024/03/13 09:04:09;;;;;;;43.50;29.00;;;;;;;;;;106731;1254;62041;-83
2024/03/13 09:06:36;;;;;;;19.40;13.80;;;;;;;;;;107278;1253;61846;-82
2024/03/13 09:09:06;;;;;;;23.40;15.40;;;;;;;;;;107454;1253;63307;-82
2024/03/13 09:11:33;;;;;;;59.90;45.30;;;;;;;;;;107270;1253;63421;-77
2024/03/13 09:14:03;;;;;;;27.00;17.30;;;;;;;;;;107281;1254;62325;-82
2024/03/13 09:16:32;;;;;;;20.40;11.40;;;;;;;;;;106846;1264;62072;-82
2024/03/13 09:18:59;;;;;;;21.60;13.40;;;;;;;;;;106796;1257;62066;-82
2024/03/13 09:21:26;;;;;;;30.10;16.80;;;;;;;;;;106716;1253;62149;-78
2024/03/13 09:23:52;;;;;;;23.30;15.40;;;;;;;;;;107427;1254;63422;-83
2024/03/13 09:26:19;;;;;;;24.50;14.40;;;;;;;;;;107292;1254;61952;-82
2024/03/13 09:28:48;;;;;;;29.10;15.90;;;;;;;;;;107271;1260;62030;-78
2024/03/13 09:31:14;;;;;;;23.40;13.10;;;;;;;;;;106937;1256;62139;-82
2024/03/13 09:33:41;;;;;;;21.00;12.90;;;;;;;;;;108668;1252;61938;-82
2024/03/13 09:36:11;;;;;;;24.50;12.50;;;;;;;;;;107684;1253;62137;-81
2024/03/13 09:38:37;;;;;;;20.50;12.20;;;;;;;;;;107003;1254;62037;-81
2024/03/13 09:41:05;;;;;;;25.90;14.20;;;;;;;;;;106761;1253;60561;-79
2024/03/13 09:43:32;;;;;;;24.00;13.60;;;;;;;;;;108405;1254;60064;-81
2024/03/13 09:45:59;;;;;;;25.40;15.70;;;;;;;;;;107672;1254;59948;-78
2024/03/13 09:48:26;;;;;;;28.70;18.80;;;;;;;;;;106522;1257;63274;-82
2024/03/13 09:50:53;;;;;;;27.10;14.90;;;;;;;;;;106495;1253;61998;-78
2024/03/13 09:53:20;;;;;;;28.60;16.00;;;;;;;;;;106451;1254;62101;-82
2024/03/13 09:55:48;;;;;;;29.10;14.90;;;;;;;;;;106429;1254;62085;-79
2024/03/13 09:58:15;;;;;;;28.10;15.50;;;;;;;;;;106904;1252;62129;-80
2024/03/13 10:00:42;;;;;;;32.20;17.30;;;;;;;;;;106574;1254;62701;-78
2024/03/13 10:03:15;;;;;;;38.40;21.10;;;;;;;;;;106466;1253;62068;-78
2024/03/13 10:05:42;;;;;;;41.10;20.30;;;;;;;;;;107091;1253;62050;-78
2024/03/13 10:08:09;;;;;;;43.80;24.30;;;;;;;;;;106288;1253;62066;-77
2024/03/13 10:10:36;;;;;;;57.30;32.80;;;;;;;;;;106351;1254;62127;-82
2024/03/13 10:13:03;;;;;;;47.90;24.10;;;;;;;;;;107863;1254;62700;-78
2024/03/13 10:15:30;;;;;;;68.00;32.20;;;;;;;;;;106871;1256;62053;-79
2024/03/13 10:17:59;;;;;;;58.10;27.90;;;;;;;;;;106507;1256;62085;-81
2024/03/13 10:20:26;;;;;;;53.70;25.00;;;;;;;;;;107085;1257;61964;-78
2024/03/13 10:22:53;;;;;;;59.30;27.20;;;;;;;;;;106623;1254;62025;-78
2024/03/13 10:25:19;;;;;;;57.40;27.50;;;;;;;;;;106662;1251;62677;-79
2024/03/13 10:27:45;;;;;;;54.70;28.70;;;;;;;;;;106290;1259;62122;-78
2024/03/13 10:30:12;;;;;;;63.40;30.50;;;;;;;;;;106444;1253;62075;-78
2024/03/13 10:32:38;;;;;;;59.70;27.80;;;;;;;;;;106325;1259;62110;-77
2024/03/13 10:35:05;;;;;;;61.70;30.80;;;;;;;;;;107006;1251;62063;-82
2024/03/13 10:37:31;;;;;;;63.50;28.10;;;;;;;;;;106796;1257;62236;-78
2024/03/13 10:39:58;;;;;;;64.40;27.00;;;;;;;;;;106321;1257;62155;-78
2024/03/13 10:42:24;;;;;;;65.10;30.30;;;;;;;;;;106361;1259;62149;-82
2024/03/13 10:44:51;;;;;;;66.10;30.40;;;;;;;;;;106978;1257;62153;-78
2024/03/13 10:47:17;;;;;;;66.60;30.60;;;;;;;;;;106495;1251;62161;-82
2024/03/13 10:49:44;;;;;;;51.20;25.70;;;;;;;;;;106419;1254;62184;-78
2024/03/13 10:52:12;;;;;;;59.40;28.00;;;;;;;;;;106492;1254;62030;-82
2024/03/13 10:54:39;;;;;;;55.00;28.50;;;;;;;;;;106490;1254;62110;-78
2024/03/13 10:57:07;;;;;;;58.60;29.40;;;;;;;;;;106492;1253;62387;-78
2024/03/13 10:59:33;;;;;;;55.60;28.30;;;;;;;;;;106260;1253;61948;-82
2024/03/13 11:02:00;;;;;;;59.20;30.10;;;;;;;;;;106528;1254;62129;-82
2024/03/13 11:04:27;;;;;;;65.50;30.20;;;;;;;;;;107178;1254;62169;-78
2024/03/13 11:06:53;;;;;;;57.10;27.10;;;;;;;;;;106779;1252;63155;-79
2024/03/13 11:09:22;;;;;;;64.30;28.10;;;;;;;;;;106393;1253;62109;-81
2024/03/13 11:11:51;;;;;;;61.70;29.20;;;;;;;;;;107134;1253;62700;-82
2024/03/13 11:14:20;;;;;;;55.40;25.30;;;;;;;;;;106961;1254;63229;-79
2024/03/13 11:16:49;;;;;;;64.80;29.50;;;;;;;;;;106422;1253;62054;-82
2024/03/13 11:19:16;;;;;;;60.30;27.90;;;;;;;;;;106170;1254;62181;-81
2024/03/13 11:21:46;;;;;;;63.50;31.90;;;;;;;;;;106624;1253;62034;-78
2024/03/13 11:24:14;;;;;;;73.90;31.00;;;;;;;;;;106786;1251;62054;-78
2024/03/13 11:26:41;;;;;;;64.50;31.00;;;;;;;;;;107153;1252;62800;-81
2024/03/13 11:29:08;;;;;;;81.40;32.30;;;;;;;;;;107233;1251;61971;-82
2024/03/13 11:31:36;;;;;;;69.70;32.90;;;;;;;;;;107708;1254;61361;-79
2024/03/13 11:34:02;;;;;;;70.40;32.70;;;;;;;;;;107093;1253;62284;-82
2024/03/13 11:36:28;;;;;;;81.50;34.90;;;;;;;;;;107656;1253;62211;-82
2024/03/13 11:38:56;;;;;;;72.60;32.50;;;;;;;;;;107480;1253;62149;-82
2024/03/13 11:41:22;;;;;;;73.70;30.20;;;;;;;;;;107380;1253;61931;-79
2024/03/13 11:43:49;;;;;;;73.70;31.10;;;;;;;;;;107297;1253;62483;-82
2024/03/13 11:46:20;;;;;;;69.80;32.30;;;;;;;;;;107410;1251;62181;-82
2024/03/13 11:48:47;;;;;;;80.30;32.50;;;;;;;;;;107200;1252;62112;-82
2024/03/13 11:51:13;;;;;;;66.50;31.40;;;;;;;;;;107339;1251;62110;-81
2024/03/13 11:53:45;;;;;;;73.50;30.70;;;;;;;;;;109396;1253;61495;-82
2024/03/13 11:56:20;;;;;;;74.60;31.60;;;;;;;;;;109436;1251;60282;-79
2024/03/13 11:58:47;;;;;;;75.60;32.90;;;;;;;;;;109200;1252;60139;-79
2024/03/13 12:01:15;;;;;;;68.00;29.60;;;;;;;;;;109420;1252;60939;-82
2024/03/13 12:03:45;;;;;;;74.00;28.90;;;;;;;;;;109257;1251;62707;-82
2024/03/13 12:06:21;;;;;;;81.00;31.00;;;;;;;;;;108082;1256;60349;-82
2024/03/13 12:08:48;;;;;;;68.80;31.00;;;;;;;;;;107624;1252;62063;-82
2024/03/13 12:11:17;;;;;;;65.90;31.00;;;;;;;;;;107276;1253;61931;-82
2024/03/13 12:13:44;;;;;;;72.70;31.20;;;;;;;;;;107368;1253;62711;-78
2024/03/13 12:16:14;;;;;;;73.40;30.90;;;;;;;;;;106441;1254;62708;-78
2024/03/13 12:18:45;;;;;;;76.10;32.00;;;;;;;;;;106390;1253;62100;-82
2024/03/13 12:21:11;;;;;;;75.30;33.90;;;;;;;;;;106615;1253;61092;-78
2024/03/13 12:23:37;;;;;;;65.90;31.10;;;;;;;;;;106528;1256;60375;-78
2024/03/13 12:26:04;;;;;;;72.80;30.20;;;;;;;;;;106654;1253;62063;-83
2024/03/13 12:28:30;;;;;;;81.40;39.50;;;;;;;;;;107188;1254;61954;-83
2024/03/13 12:30:58;;;;;;;84.60;41.30;;;;;;;;;;107346;1251;61970;-78
2024/03/13 12:33:25;;;;;;;79.30;33.10;;;;;;;;;;106536;1253;62007;-82
2024/03/13 12:35:59;;;;;;;69.80;31.10;;;;;;;;;;107319;1253;62060;-79
2024/03/13 12:38:38;;;;;;;75.70;31.30;;;;;;;;;;106622;1251;62040;-78
2024/03/13 12:41:07;;;;;;;77.80;30.50;;;;;;;;;;107153;1253;62461;-79
2024/03/13 12:43:33;;;;;;;83.30;33.50;;;;;;;;;;106465;1253;62033;-82
2024/03/13 12:46:02;;;;;;;71.40;29.20;;;;;;;;;;107319;1252;62141;-79
2024/03/13 12:48:31;;;;;;;74.00;32.50;;;;;;;;;;106464;1254;61913;-82
2024/03/13 12:50:58;;;;;;;77.80;31.70;;;;;;;;;;107293;1253;62562;-82
2024/03/13 12:53:25;;;;;;;72.10;30.30;;;;;;;;;;107417;1253;62742;-82
2024/03/13 12:55:52;;;;;;;78.30;35.20;;;;;;;;;;107322;1256;62136;-82
2024/03/13 12:58:18;;;;;;;77.20;33.30;;;;;;;;;;107297;1254;62043;-82
2024/03/13 13:00:45;;;;;;;88.30;34.40;;;;;;;;;;107064;1253;62034;-82
2024/03/13 13:03:12;;;;;;;80.70;34.60;;;;;;;;;;107549;1253;60180;-81
2024/03/13 13:05:39;;;;;;;83.50;37.00;;;;;;;;;;107212;1253;62748;-79
2024/03/13 13:08:06;;;;;;;80.50;36.90;;;;;;;;;;107170;1257;62046;-82
2024/03/13 13:10:34;;;;;;;77.90;35.50;;;;;;;;;;107030;1259;61999;-79
2024/03/13 13:13:00;;;;;;;74.40;34.70;;;;;;;;;;107610;1251;62152;-83
2024/03/13 13:15:27;;;;;;;67.20;33.20;;;;;;;;;;107337;1254;61987;-80
2024/03/13 13:17:53;;;;;;;83.80;41.20;;;;;;;;;;107152;1253;61527;-79
2024/03/13 13:20:22;;;;;;;83.10;42.30;;;;;;;;;;107372;1253;64465;-83
2024/03/13 13:22:50;;;;;;;89.00;45.50;;;;;;;;;;107534;1251;61900;-79
2024/03/13 13:25:17;;;;;;;85.00;44.00;;;;;;;;;;107188;1257;60580;-79
2024/03/13 13:27:45;;;;;;;78.10;42.10;;;;;;;;;;106650;1253;62034;-83
2024/03/13 13:30:14;;;;;;;81.80;36.40;;;;;;;;;;107424;1251;62789;-80
2024/03/13 13:32:41;;;;;;;67.60;32.10;;;;;;;;;;107701;1257;60444;-79
2024/03/13 13:35:08;;;;;;;75.40;36.90;;;;;;;;;;107686;1251;61887;-83
2024/03/13 13:37:34;;;;;;;90.60;41.30;;;;;;;;;;107627;1251;63190;-82
2024/03/13 13:40:02;;;;;;;92.60;45.20;;;;;;;;;;107622;1252;62547;-82
2024/03/13 13:42:28;;;;;;;77.30;35.80;;;;;;;;;;107591;1251;63976;-82
2024/03/13 13:44:55;;;;;;;73.00;38.10;;;;;;;;;;107516;1253;62040;-79
2024/03/13 13:47:21;;;;;;;72.60;35.70;;;;;;;;;;106637;1253;62166;-78
2024/03/13 13:49:48;;;;;;;73.00;36.10;;;;;;;;;;106650;1253;62028;-78
2024/03/13 13:52:14;;;;;;;105.80;53.20;;;;;;;;;;107394;1252;62015;-82
2024/03/13 13:54:41;;;;;;;114.20;54.60;;;;;;;;;;107396;1253;61971;-82
2024/03/13 13:57:08;;;;;;;92.70;46.00;;;;;;;;;;107440;1252;62044;-83
2024/03/13 13:59:35;;;;;;;82.60;42.10;;;;;;;;;;107324;1253;62153;-83
2024/03/13 14:02:04;;;;;;;87.90;43.10;;;;;;;;;;107240;1253;62037;-83
2024/03/13 14:04:32;;;;;;;74.10;36.50;;;;;;;;;;107436;1254;61923;-79
2024/03/13 14:07:00;;;;;;;75.30;36.30;;;;;;;;;;107174;1253;62617;-83
2024/03/13 14:09:27;;;;;;;75.10;36.60;;;;;;;;;;107105;1253;61826;-79
2024/03/13 14:11:54;;;;;;;85.30;37.10;;;;;;;;;;107018;1257;62106;-84
2024/03/13 14:14:20;;;;;;;83.10;36.90;;;;;;;;;;107346;1253;64251;-83
2024/03/13 14:16:46;;;;;;;76.60;40.00;;;;;;;;;;107320;1253;62816;-84
2024/03/13 14:19:14;;;;;;;83.80;39.60;;;;;;;;;;107190;1256;62034;-83
2024/03/13 14:21:41;;;;;;;94.50;43.30;;;;;;;;;;107513;1252;60568;-79
2024/03/13 14:24:10;;;;;;;77.30;38.10;;;;;;;;;;107315;1253;61865;-84
2024/03/13 14:26:37;;;;;;;73.90;37.00;;;;;;;;;;107167;1252;62060;-79
2024/03/13 14:29:06;;;;;;;74.20;38.30;;;;;;;;;;107082;1253;61960;-83
2024/03/13 14:31:36;;;;;;;69.40;34.00;;;;;;;;;;107086;1253;62088;-84
2024/03/13 14:34:02;;;;;;;81.60;40.60;;;;;;;;;;107151;1253;60649;-80